< < Back
Terminal Aerodrome Forecast


Current Version              Previous Versions:   1  2  3  4  5  6  7  8  9  

Terminal Aerodrome Forecast

536
FTUS42 KGSP 061134
TAFAND
TAF
KAND 061134Z 0612/0712 05010G16KT P6SM BKN040
     FM061400 04008KT P6SM FEW040
     FM061900 24005KT P6SM SKC=

Latest METAR

551
SAUS70 KWBC 061400 RRA
MTRAND
METAR KAND 061356Z AUTO 06010KT 10SM OVC050 01/M06 A3045 RMK AO2 SLP314
T00111061


USA.gov is the U.S. government's official web portal to all federal, state and local government web resources and services.